sensor_id;sensor_type;location;lat;lon;timestamp;P1;durP1;ratioP1;P2;durP2;ratioP2
11135;SDS011;5622;50.840;4.948;2024-01-25T00:01:02;41.47;;;8.40;;
11135;SDS011;5622;50.840;4.948;2024-01-25T00:03:29;41.40;;;7.77;;
11135;SDS011;5622;50.840;4.948;2024-01-25T00:05:56;35.27;;;8.20;;
11135;SDS011;5622;50.840;4.948;2024-01-25T00:08:23;42.73;;;9.70;;
11135;SDS011;5622;50.840;4.948;2024-01-25T00:10:50;32.70;;;7.90;;
11135;SDS011;5622;50.840;4.948;2024-01-25T00:13:19;39.20;;;8.23;;
11135;SDS011;5622;50.840;4.948;2024-01-25T00:15:46;52.47;;;9.07;;
11135;SDS011;5622;50.840;4.948;2024-01-25T00:18:13;37.60;;;7.43;;
11135;SDS011;5622;50.840;4.948;2024-01-25T00:20:40;48.67;;;7.83;;
11135;SDS011;5622;50.840;4.948;2024-01-25T00:23:07;33.37;;;7.43;;
11135;SDS011;5622;50.840;4.948;2024-01-25T00:25:34;44.40;;;7.63;;
11135;SDS011;5622;50.840;4.948;2024-01-25T00:28:01;34.07;;;7.37;;
11135;SDS011;5622;50.840;4.948;2024-01-25T00:30:31;35.50;;;8.37;;
11135;SDS011;5622;50.840;4.948;2024-01-25T00:32:58;32.90;;;6.63;;
11135;SDS011;5622;50.840;4.948;2024-01-25T00:35:26;40.73;;;8.17;;
11135;SDS011;5622;50.840;4.948;2024-01-25T00:37:54;39.50;;;9.37;;
11135;SDS011;5622;50.840;4.948;2024-01-25T00:40:22;39.87;;;7.93;;
11135;SDS011;5622;50.840;4.948;2024-01-25T00:42:49;42.97;;;7.60;;
11135;SDS011;5622;50.840;4.948;2024-01-25T00:45:19;43.33;;;7.93;;
11135;SDS011;5622;50.840;4.948;2024-01-25T00:47:48;39.97;;;7.60;;
11135;SDS011;5622;50.840;4.948;2024-01-25T00:50:17;44.03;;;7.87;;
11135;SDS011;5622;50.840;4.948;2024-01-25T00:52:46;51.20;;;7.90;;
11135;SDS011;5622;50.840;4.948;2024-01-25T00:55:14;37.67;;;7.57;;
11135;SDS011;5622;50.840;4.948;2024-01-25T00:57:42;41.43;;;8.70;;
11135;SDS011;5622;50.840;4.948;2024-01-25T01:00:10;37.37;;;7.03;;
11135;SDS011;5622;50.840;4.948;2024-01-25T01:02:39;43.27;;;9.23;;
11135;SDS011;5622;50.840;4.948;2024-01-25T01:05:10;43.20;;;9.10;;
11135;SDS011;5622;50.840;4.948;2024-01-25T01:07:38;36.63;;;7.90;;
11135;SDS011;5622;50.840;4.948;2024-01-25T01:10:07;44.50;;;8.93;;
11135;SDS011;5622;50.840;4.948;2024-01-25T01:12:34;38.67;;;9.27;;
11135;SDS011;5622;50.840;4.948;2024-01-25T01:15:02;35.43;;;8.50;;
11135;SDS011;5622;50.840;4.948;2024-01-25T01:17:29;33.83;;;6.93;;
11135;SDS011;5622;50.840;4.948;2024-01-25T01:19:56;36.70;;;8.20;;
11135;SDS011;5622;50.840;4.948;2024-01-25T01:22:25;40.37;;;7.73;;
11135;SDS011;5622;50.840;4.948;2024-01-25T01:24:52;38.10;;;8.53;;
11135;SDS011;5622;50.840;4.948;2024-01-25T01:27:19;41.43;;;8.77;;
11135;SDS011;5622;50.840;4.948;2024-01-25T01:29:47;39.97;;;8.03;;
11135;SDS011;5622;50.840;4.948;2024-01-25T01:32:14;42.93;;;8.20;;
11135;SDS011;5622;50.840;4.948;2024-01-25T01:34:41;39.67;;;8.37;;
11135;SDS011;5622;50.840;4.948;2024-01-25T01:37:08;36.13;;;8.60;;
11135;SDS011;5622;50.840;4.948;2024-01-25T01:39:36;37.20;;;7.40;;
11135;SDS011;5622;50.840;4.948;2024-01-25T01:42:04;49.20;;;8.67;;
11135;SDS011;5622;50.840;4.948;2024-01-25T01:44:31;35.00;;;8.03;;
11135;SDS011;5622;50.840;4.948;2024-01-25T01:46:58;34.00;;;6.80;;
11135;SDS011;5622;50.840;4.948;2024-01-25T01:49:25;38.70;;;7.83;;
11135;SDS011;5622;50.840;4.948;2024-01-25T01:51:52;32.10;;;7.13;;
11135;SDS011;5622;50.840;4.948;2024-01-25T01:54:20;31.57;;;6.77;;
11135;SDS011;5622;50.840;4.948;2024-01-25T01:56:50;37.90;;;6.60;;
11135;SDS011;5622;50.840;4.948;2024-01-25T01:59:17;33.17;;;6.80;;
11135;SDS011;5622;50.840;4.948;2024-01-25T02:01:45;30.40;;;7.60;;
11135;SDS011;5622;50.840;4.948;2024-01-25T02:04:12;35.00;;;6.80;;
11135;SDS011;5622;50.840;4.948;2024-01-25T02:06:40;46.17;;;9.80;;
11135;SDS011;5622;50.840;4.948;2024-01-25T02:09:09;37.53;;;7.20;;
11135;SDS011;5622;50.840;4.948;2024-01-25T02:11:36;43.63;;;8.23;;
11135;SDS011;5622;50.840;4.948;2024-01-25T02:14:05;37.73;;;7.57;;
11135;SDS011;5622;50.840;4.948;2024-01-25T02:16:35;31.07;;;7.33;;
11135;SDS011;5622;50.840;4.948;2024-01-25T02:19:03;24.27;;;6.37;;
11135;SDS011;5622;50.840;4.948;2024-01-25T02:21:30;23.83;;;5.97;;
11135;SDS011;5622;50.840;4.948;2024-01-25T02:23:58;27.23;;;6.67;;
11135;SDS011;5622;50.840;4.948;2024-01-25T02:26:25;46.43;;;8.07;;
11135;SDS011;5622;50.840;4.948;2024-01-25T02:28:52;33.93;;;7.07;;
11135;SDS011;5622;50.840;4.948;2024-01-25T02:31:19;39.50;;;6.63;;
11135;SDS011;5622;50.840;4.948;2024-01-25T02:33:47;42.80;;;8.10;;
11135;SDS011;5622;50.840;4.948;2024-01-25T02:36:14;35.77;;;7.37;;
11135;SDS011;5622;50.840;4.948;2024-01-25T02:38:41;27.83;;;6.40;;
11135;SDS011;5622;50.840;4.948;2024-01-25T02:41:09;37.47;;;8.07;;
11135;SDS011;5622;50.840;4.948;2024-01-25T02:43:36;33.43;;;7.63;;
11135;SDS011;5622;50.840;4.948;2024-01-25T02:46:03;40.00;;;7.07;;
11135;SDS011;5622;50.840;4.948;2024-01-25T02:48:31;43.70;;;7.17;;
11135;SDS011;5622;50.840;4.948;2024-01-25T02:50:58;35.83;;;7.53;;
11135;SDS011;5622;50.840;4.948;2024-01-25T02:53:25;31.60;;;6.53;;
11135;SDS011;5622;50.840;4.948;2024-01-25T02:55:52;39.93;;;6.97;;
11135;SDS011;5622;50.840;4.948;2024-01-25T02:58:20;39.47;;;7.37;;
11135;SDS011;5622;50.840;4.948;2024-01-25T03:00:48;28.63;;;6.40;;
11135;SDS011;5622;50.840;4.948;2024-01-25T03:03:15;25.07;;;6.67;;
11135;SDS011;5622;50.840;4.948;2024-01-25T03:05:42;34.73;;;7.40;;
11135;SDS011;5622;50.840;4.948;2024-01-25T03:08:09;28.40;;;6.43;;
11135;SDS011;5622;50.840;4.948;2024-01-25T03:10:36;30.50;;;6.17;;
11135;SDS011;5622;50.840;4.948;2024-01-25T03:13:03;27.23;;;6.57;;
11135;SDS011;5622;50.840;4.948;2024-01-25T03:15:32;25.33;;;6.23;;
11135;SDS011;5622;50.840;4.948;2024-01-25T03:17:59;25.47;;;6.57;;
11135;SDS011;5622;50.840;4.948;2024-01-25T03:20:26;26.73;;;6.53;;
11135;SDS011;5622;50.840;4.948;2024-01-25T03:22:53;20.93;;;5.57;;
11135;SDS011;5622;50.840;4.948;2024-01-25T03:25:20;27.80;;;6.23;;
11135;SDS011;5622;50.840;4.948;2024-01-25T03:27:47;18.63;;;5.97;;
11135;SDS011;5622;50.840;4.948;2024-01-25T03:30:15;27.27;;;5.60;;
11135;SDS011;5622;50.840;4.948;2024-01-25T03:32:43;32.47;;;6.33;;
11135;SDS011;5622;50.840;4.948;2024-01-25T03:35:12;26.10;;;5.60;;
11135;SDS011;5622;50.840;4.948;2024-01-25T03:37:39;20.57;;;5.10;;
11135;SDS011;5622;50.840;4.948;2024-01-25T03:40:06;30.57;;;6.60;;
11135;SDS011;5622;50.840;4.948;2024-01-25T03:42:34;30.90;;;6.97;;
11135;SDS011;5622;50.840;4.948;2024-01-25T03:45:01;26.57;;;5.40;;
11135;SDS011;5622;50.840;4.948;2024-01-25T03:47:28;20.77;;;5.40;;
11135;SDS011;5622;50.840;4.948;2024-01-25T03:49:57;23.97;;;5.13;;
11135;SDS011;5622;50.840;4.948;2024-01-25T03:52:25;23.87;;;5.30;;
11135;SDS011;5622;50.840;4.948;2024-01-25T03:54:55;16.80;;;4.90;;
11135;SDS011;5622;50.840;4.948;2024-01-25T03:57:22;19.80;;;5.80;;
11135;SDS011;5622;50.840;4.948;2024-01-25T03:59:49;20.17;;;5.10;;
11135;SDS011;5622;50.840;4.948;2024-01-25T04:02:16;21.87;;;5.07;;
11135;SDS011;5622;50.840;4.948;2024-01-25T04:04:43;23.53;;;6.07;;
11135;SDS011;5622;50.840;4.948;2024-01-25T04:07:12;26.43;;;5.63;;
11135;SDS011;5622;50.840;4.948;2024-01-25T04:09:39;27.50;;;6.13;;
11135;SDS011;5622;50.840;4.948;2024-01-25T04:12:06;27.03;;;5.43;;
11135;SDS011;5622;50.840;4.948;2024-01-25T04:14:33;22.53;;;4.63;;
11135;SDS011;5622;50.840;4.948;2024-01-25T04:17:00;26.10;;;5.27;;
11135;SDS011;5622;50.840;4.948;2024-01-25T04:19:27;26.40;;;5.33;;
11135;SDS011;5622;50.840;4.948;2024-01-25T04:21:54;24.07;;;6.60;;
11135;SDS011;5622;50.840;4.948;2024-01-25T04:24:23;17.10;;;4.50;;
11135;SDS011;5622;50.840;4.948;2024-01-25T04:26:50;27.27;;;5.50;;
11135;SDS011;5622;50.840;4.948;2024-01-25T04:29:17;26.17;;;6.20;;
11135;SDS011;5622;50.840;4.948;2024-01-25T04:31:44;21.97;;;5.43;;
11135;SDS011;5622;50.840;4.948;2024-01-25T04:34:13;30.03;;;5.83;;
11135;SDS011;5622;50.840;4.948;2024-01-25T04:36:41;28.53;;;5.77;;
11135;SDS011;5622;50.840;4.948;2024-01-25T04:39:09;29.07;;;6.17;;
11135;SDS011;5622;50.840;4.948;2024-01-25T04:41:37;31.00;;;6.27;;
11135;SDS011;5622;50.840;4.948;2024-01-25T04:44:04;37.07;;;6.67;;
11135;SDS011;5622;50.840;4.948;2024-01-25T04:46:31;22.13;;;4.97;;
11135;SDS011;5622;50.840;4.948;2024-01-25T04:49:01;23.40;;;6.40;;
11135;SDS011;5622;50.840;4.948;2024-01-25T04:51:28;28.40;;;6.20;;
11135;SDS011;5622;50.840;4.948;2024-01-25T04:53:56;19.10;;;5.00;;
11135;SDS011;5622;50.840;4.948;2024-01-25T04:56:23;24.63;;;5.70;;
11135;SDS011;5622;50.840;4.948;2024-01-25T04:58:51;21.13;;;5.07;;
11135;SDS011;5622;50.840;4.948;2024-01-25T05:01:18;30.87;;;6.23;;
11135;SDS011;5622;50.840;4.948;2024-01-25T05:03:45;23.37;;;5.53;;
11135;SDS011;5622;50.840;4.948;2024-01-25T05:06:12;32.17;;;5.90;;
11135;SDS011;5622;50.840;4.948;2024-01-25T05:08:41;27.47;;;6.07;;
11135;SDS011;5622;50.840;4.948;2024-01-25T05:11:08;19.70;;;4.77;;
11135;SDS011;5622;50.840;4.948;2024-01-25T05:13:35;27.67;;;6.60;;
11135;SDS011;5622;50.840;4.948;2024-01-25T05:16:04;22.43;;;5.53;;
11135;SDS011;5622;50.840;4.948;2024-01-25T05:18:31;29.30;;;6.17;;
11135;SDS011;5622;50.840;4.948;2024-01-25T05:20:58;27.90;;;5.77;;
11135;SDS011;5622;50.840;4.948;2024-01-25T05:23:26;27.67;;;5.80;;
11135;SDS011;5622;50.840;4.948;2024-01-25T05:25:53;20.87;;;5.93;;
11135;SDS011;5622;50.840;4.948;2024-01-25T05:28:20;23.00;;;6.73;;
11135;SDS011;5622;50.840;4.948;2024-01-25T05:30:47;30.53;;;6.77;;
11135;SDS011;5622;50.840;4.948;2024-01-25T05:33:15;24.17;;;6.20;;
11135;SDS011;5622;50.840;4.948;2024-01-25T05:35:43;21.57;;;5.37;;
11135;SDS011;5622;50.840;4.948;2024-01-25T05:38:10;25.30;;;6.30;;
11135;SDS011;5622;50.840;4.948;2024-01-25T05:40:37;29.17;;;6.87;;
11135;SDS011;5622;50.840;4.948;2024-01-25T05:43:04;20.83;;;5.50;;
11135;SDS011;5622;50.840;4.948;2024-01-25T05:45:31;18.27;;;4.77;;
11135;SDS011;5622;50.840;4.948;2024-01-25T05:47:59;22.90;;;5.23;;
11135;SDS011;5622;50.840;4.948;2024-01-25T05:50:27;25.70;;;6.27;;
11135;SDS011;5622;50.840;4.948;2024-01-25T05:52:54;21.20;;;4.93;;
11135;SDS011;5622;50.840;4.948;2024-01-25T05:55:22;29.93;;;6.10;;
11135;SDS011;5622;50.840;4.948;2024-01-25T05:57:49;24.23;;;5.67;;
11135;SDS011;5622;50.840;4.948;2024-01-25T06:00:16;25.30;;;6.23;;
11135;SDS011;5622;50.840;4.948;2024-01-25T06:02:44;17.43;;;5.33;;
11135;SDS011;5622;50.840;4.948;2024-01-25T06:05:11;35.00;;;6.43;;
11135;SDS011;5622;50.840;4.948;2024-01-25T06:07:40;23.70;;;5.93;;
11135;SDS011;5622;50.840;4.948;2024-01-25T06:10:07;28.57;;;6.03;;
11135;SDS011;5622;50.840;4.948;2024-01-25T06:12:35;27.77;;;6.93;;
11135;SDS011;5622;50.840;4.948;2024-01-25T06:15:02;31.47;;;6.83;;
11135;SDS011;5622;50.840;4.948;2024-01-25T06:17:30;28.37;;;6.77;;
11135;SDS011;5622;50.840;4.948;2024-01-25T06:19:57;27.47;;;6.80;;
11135;SDS011;5622;50.840;4.948;2024-01-25T06:22:24;35.47;;;7.97;;
11135;SDS011;5622;50.840;4.948;2024-01-25T06:24:53;31.80;;;8.70;;
11135;SDS011;5622;50.840;4.948;2024-01-25T06:27:20;24.93;;;7.13;;
11135;SDS011;5622;50.840;4.948;2024-01-25T06:29:47;28.73;;;7.00;;
11135;SDS011;5622;50.840;4.948;2024-01-25T06:32:14;36.03;;;7.73;;
11135;SDS011;5622;50.840;4.948;2024-01-25T06:34:41;25.77;;;6.93;;
11135;SDS011;5622;50.840;4.948;2024-01-25T06:37:08;24.83;;;5.77;;
11135;SDS011;5622;50.840;4.948;2024-01-25T06:39:37;24.50;;;6.77;;
11135;SDS011;5622;50.840;4.948;2024-01-25T06:42:06;26.57;;;6.17;;
11135;SDS011;5622;50.840;4.948;2024-01-25T06:44:33;29.63;;;6.83;;
11135;SDS011;5622;50.840;4.948;2024-01-25T06:47:00;40.17;;;7.73;;
11135;SDS011;5622;50.840;4.948;2024-01-25T06:49:27;33.73;;;7.37;;
11135;SDS011;5622;50.840;4.948;2024-01-25T06:51:54;31.00;;;6.70;;
11135;SDS011;5622;50.840;4.948;2024-01-25T06:54:21;36.37;;;7.53;;
11135;SDS011;5622;50.840;4.948;2024-01-25T06:56:48;30.47;;;6.73;;
11135;SDS011;5622;50.840;4.948;2024-01-25T06:59:18;31.97;;;6.93;;
11135;SDS011;5622;50.840;4.948;2024-01-25T07:01:45;27.77;;;6.50;;
11135;SDS011;5622;50.840;4.948;2024-01-25T07:04:12;30.67;;;6.30;;
11135;SDS011;5622;50.840;4.948;2024-01-25T07:06:39;33.40;;;8.07;;
11135;SDS011;5622;50.840;4.948;2024-01-25T07:09:06;43.00;;;8.93;;
11135;SDS011;5622;50.840;4.948;2024-01-25T07:11:33;37.17;;;8.17;;
11135;SDS011;5622;50.840;4.948;2024-01-25T07:14:00;31.10;;;7.20;;
11135;SDS011;5622;50.840;4.948;2024-01-25T07:16:29;34.27;;;7.27;;
11135;SDS011;5622;50.840;4.948;2024-01-25T07:18:56;28.07;;;6.13;;
11135;SDS011;5622;50.840;4.948;2024-01-25T07:21:23;35.30;;;7.57;;
11135;SDS011;5622;50.840;4.948;2024-01-25T07:23:50;32.30;;;7.07;;
11135;SDS011;5622;50.840;4.948;2024-01-25T07:26:18;34.90;;;7.30;;
11135;SDS011;5622;50.840;4.948;2024-01-25T07:28:45;24.73;;;7.27;;
11135;SDS011;5622;50.840;4.948;2024-01-25T07:31:12;34.67;;;7.73;;
11135;SDS011;5622;50.840;4.948;2024-01-25T07:33:41;25.70;;;7.73;;
11135;SDS011;5622;50.840;4.948;2024-01-25T07:36:08;34.37;;;8.63;;
11135;SDS011;5622;50.840;4.948;2024-01-25T07:38:35;32.03;;;7.23;;
11135;SDS011;5622;50.840;4.948;2024-01-25T07:41:02;28.10;;;8.93;;
11135;SDS011;5622;50.840;4.948;2024-01-25T07:43:29;29.97;;;8.23;;
11135;SDS011;5622;50.840;4.948;2024-01-25T07:45:57;34.47;;;7.87;;
11135;SDS011;5622;50.840;4.948;2024-01-25T07:48:29;36.37;;;7.23;;
11135;SDS011;5622;50.840;4.948;2024-01-25T07:51:00;27.33;;;7.43;;
11135;SDS011;5622;50.840;4.948;2024-01-25T07:53:31;31.10;;;9.30;;
11135;SDS011;5622;50.840;4.948;2024-01-25T07:55:58;25.43;;;8.50;;
11135;SDS011;5622;50.840;4.948;2024-01-25T07:58:25;25.80;;;9.07;;
11135;SDS011;5622;50.840;4.948;2024-01-25T08:00:55;22.83;;;9.73;;
11135;SDS011;5622;50.840;4.948;2024-01-25T08:03:22;24.47;;;9.23;;
11135;SDS011;5622;50.840;4.948;2024-01-25T08:05:49;23.70;;;9.77;;
11135;SDS011;5622;50.840;4.948;2024-01-25T08:08:18;27.40;;;11.13;;
11135;SDS011;5622;50.840;4.948;2024-01-25T08:10:45;29.73;;;10.23;;
11135;SDS011;5622;50.840;4.948;2024-01-25T08:13:12;22.90;;;10.63;;
11135;SDS011;5622;50.840;4.948;2024-01-25T08:15:39;20.27;;;9.33;;
11135;SDS011;5622;50.840;4.948;2024-01-25T08:18:08;26.47;;;9.87;;
11135;SDS011;5622;50.840;4.948;2024-01-25T08:20:36;25.97;;;9.30;;
11135;SDS011;5622;50.840;4.948;2024-01-25T08:23:04;19.53;;;9.40;;
11135;SDS011;5622;50.840;4.948;2024-01-25T08:25:35;14.97;;;9.07;;
11135;SDS011;5622;50.840;4.948;2024-01-25T08:28:02;21.57;;;7.97;;
11135;SDS011;5622;50.840;4.948;2024-01-25T08:30:29;18.60;;;9.17;;
11135;SDS011;5622;50.840;4.948;2024-01-25T08:32:56;22.17;;;9.73;;
11135;SDS011;5622;50.840;4.948;2024-01-25T08:35:23;16.53;;;9.13;;
11135;SDS011;5622;50.840;4.948;2024-01-25T08:37:50;15.40;;;9.17;;
11135;SDS011;5622;50.840;4.948;2024-01-25T08:40:17;18.33;;;9.43;;
11135;SDS011;5622;50.840;4.948;2024-01-25T08:42:46;25.33;;;9.93;;
11135;SDS011;5622;50.840;4.948;2024-01-25T08:45:13;22.70;;;9.97;;
11135;SDS011;5622;50.840;4.948;2024-01-25T08:47:40;16.27;;;9.63;;
11135;SDS011;5622;50.840;4.948;2024-01-25T08:50:10;21.27;;;10.83;;
11135;SDS011;5622;50.840;4.948;2024-01-25T08:52:38;23.40;;;11.83;;
11135;SDS011;5622;50.840;4.948;2024-01-25T08:55:06;23.50;;;12.40;;
11135;SDS011;5622;50.840;4.948;2024-01-25T08:57:35;23.37;;;12.80;;
11135;SDS011;5622;50.840;4.948;2024-01-25T09:00:04;22.80;;;12.23;;
11135;SDS011;5622;50.840;4.948;2024-01-25T09:02:35;26.07;;;12.80;;
11135;SDS011;5622;50.840;4.948;2024-01-25T09:05:02;23.07;;;12.53;;
11135;SDS011;5622;50.840;4.948;2024-01-25T09:07:30;27.57;;;12.73;;
11135;SDS011;5622;50.840;4.948;2024-01-25T09:09:57;28.83;;;12.83;;
11135;SDS011;5622;50.840;4.948;2024-01-25T09:12:26;30.57;;;12.80;;
11135;SDS011;5622;50.840;4.948;2024-01-25T09:14:54;27.43;;;13.97;;
11135;SDS011;5622;50.840;4.948;2024-01-25T09:17:22;30.00;;;12.40;;
11135;SDS011;5622;50.840;4.948;2024-01-25T09:19:50;25.07;;;12.37;;
11135;SDS011;5622;50.840;4.948;2024-01-25T09:22:17;27.73;;;12.80;;
11135;SDS011;5622;50.840;4.948;2024-01-25T09:24:45;24.33;;;11.63;;
11135;SDS011;5622;50.840;4.948;2024-01-25T09:27:14;24.10;;;11.17;;
11135;SDS011;5622;50.840;4.948;2024-01-25T09:29:42;23.63;;;12.77;;
11135;SDS011;5622;50.840;4.948;2024-01-25T09:32:09;25.10;;;12.37;;
11135;SDS011;5622;50.840;4.948;2024-01-25T09:34:38;26.27;;;12.70;;
11135;SDS011;5622;50.840;4.948;2024-01-25T09:37:05;28.03;;;12.27;;
11135;SDS011;5622;50.840;4.948;2024-01-25T09:39:32;30.93;;;13.53;;
11135;SDS011;5622;50.840;4.948;2024-01-25T09:42:00;27.40;;;13.13;;
11135;SDS011;5622;50.840;4.948;2024-01-25T09:44:28;28.67;;;12.87;;
11135;SDS011;5622;50.840;4.948;2024-01-25T09:46:56;31.90;;;14.23;;
11135;SDS011;5622;50.840;4.948;2024-01-25T09:49:23;33.70;;;14.17;;
11135;SDS011;5622;50.840;4.948;2024-01-25T09:51:54;37.77;;;14.50;;
11135;SDS011;5622;50.840;4.948;2024-01-25T09:54:24;42.03;;;14.80;;
11135;SDS011;5622;50.840;4.948;2024-01-25T09:56:52;38.43;;;15.40;;
11135;SDS011;5622;50.840;4.948;2024-01-25T09:59:21;42.83;;;16.03;;
11135;SDS011;5622;50.840;4.948;2024-01-25T10:01:48;45.03;;;15.87;;
11135;SDS011;5622;50.840;4.948;2024-01-25T10:04:15;43.57;;;16.57;;
11135;SDS011;5622;50.840;4.948;2024-01-25T10:06:47;56.73;;;19.37;;
11135;SDS011;5622;50.840;4.948;2024-01-25T10:09:15;49.13;;;18.13;;
11135;SDS011;5622;50.840;4.948;2024-01-25T10:11:43;52.43;;;17.93;;
11135;SDS011;5622;50.840;4.948;2024-01-25T10:14:10;55.60;;;19.43;;
11135;SDS011;5622;50.840;4.948;2024-01-25T10:16:37;51.87;;;18.77;;
11135;SDS011;5622;50.840;4.948;2024-01-25T10:19:06;63.87;;;18.80;;
11135;SDS011;5622;50.840;4.948;2024-01-25T10:21:34;57.83;;;17.77;;
11135;SDS011;5622;50.840;4.948;2024-01-25T10:24:02;58.13;;;20.20;;
11135;SDS011;5622;50.840;4.948;2024-01-25T10:26:33;51.80;;;18.53;;
11135;SDS011;5622;50.840;4.948;2024-01-25T10:29:01;49.63;;;17.17;;
11135;SDS011;5622;50.840;4.948;2024-01-25T10:31:29;47.50;;;16.50;;
11135;SDS011;5622;50.840;4.948;2024-01-25T10:33:57;47.73;;;15.80;;
11135;SDS011;5622;50.840;4.948;2024-01-25T10:36:26;54.77;;;15.80;;
11135;SDS011;5622;50.840;4.948;2024-01-25T10:38:54;44.80;;;16.00;;
11135;SDS011;5622;50.840;4.948;2024-01-25T10:41:22;54.80;;;16.33;;
11135;SDS011;5622;50.840;4.948;2024-01-25T10:43:51;53.63;;;19.30;;
11135;SDS011;5622;50.840;4.948;2024-01-25T10:46:19;62.40;;;20.93;;
11135;SDS011;5622;50.840;4.948;2024-01-25T10:48:46;65.00;;;22.40;;
11135;SDS011;5622;50.840;4.948;2024-01-25T10:51:14;69.80;;;20.60;;
11135;SDS011;5622;50.840;4.948;2024-01-25T10:57:05;81.13;;;22.97;;
11135;SDS011;5622;50.840;4.948;2024-01-25T10:59:34;81.60;;;22.57;;
11135;SDS011;5622;50.840;4.948;2024-01-25T11:02:04;74.90;;;23.83;;
11135;SDS011;5622;50.840;4.948;2024-01-25T11:04:32;74.13;;;22.53;;
11135;SDS011;5622;50.840;4.948;2024-01-25T11:07:04;78.10;;;24.93;;
11135;SDS011;5622;50.840;4.948;2024-01-25T11:09:33;74.10;;;23.40;;
11135;SDS011;5622;50.840;4.948;2024-01-25T11:12:09;77.90;;;22.30;;
11135;SDS011;5622;50.840;4.948;2024-01-25T11:14:40;60.40;;;20.97;;
11135;SDS011;5622;50.840;4.948;2024-01-25T11:17:19;66.10;;;20.53;;
11135;SDS011;5622;50.840;4.948;2024-01-25T11:19:48;72.40;;;19.10;;
11135;SDS011;5622;50.840;4.948;2024-01-25T11:22:19;58.20;;;19.40;;
11135;SDS011;5622;50.840;4.948;2024-01-25T11:24:46;70.77;;;20.50;;
11135;SDS011;5622;50.840;4.948;2024-01-25T11:27:13;53.20;;;20.03;;
11135;SDS011;5622;50.840;4.948;2024-01-25T11:29:45;60.40;;;19.60;;
11135;SDS011;5622;50.840;4.948;2024-01-25T11:32:12;56.50;;;18.80;;
11135;SDS011;5622;50.840;4.948;2024-01-25T11:34:40;64.10;;;19.43;;
11135;SDS011;5622;50.840;4.948;2024-01-25T11:37:07;54.80;;;19.00;;
11135;SDS011;5622;50.840;4.948;2024-01-25T11:39:34;63.87;;;19.00;;
11135;SDS011;5622;50.840;4.948;2024-01-25T11:42:03;54.87;;;19.00;;
11135;SDS011;5622;50.840;4.948;2024-01-25T11:44:30;51.83;;;18.00;;
11135;SDS011;5622;50.840;4.948;2024-01-25T11:47:01;52.47;;;18.70;;
11135;SDS011;5622;50.840;4.948;2024-01-25T11:49:28;56.33;;;18.27;;
11135;SDS011;5622;50.840;4.948;2024-01-25T11:51:57;55.30;;;16.80;;
11135;SDS011;5622;50.840;4.948;2024-01-25T11:54:27;48.50;;;15.17;;
11135;SDS011;5622;50.840;4.948;2024-01-25T11:56:59;42.63;;;15.63;;
11135;SDS011;5622;50.840;4.948;2024-01-25T11:59:26;41.33;;;12.87;;
11135;SDS011;5622;50.840;4.948;2024-01-25T12:01:54;40.93;;;13.60;;
11135;SDS011;5622;50.840;4.948;2024-01-25T12:04:22;41.83;;;13.13;;
11135;SDS011;5622;50.840;4.948;2024-01-25T12:06:51;40.80;;;12.77;;
11135;SDS011;5622;50.840;4.948;2024-01-25T12:09:18;40.27;;;12.53;;
11135;SDS011;5622;50.840;4.948;2024-01-25T12:11:48;40.43;;;12.57;;
11135;SDS011;5622;50.840;4.948;2024-01-25T12:14:16;32.90;;;11.77;;
11135;SDS011;5622;50.840;4.948;2024-01-25T12:16:43;29.57;;;10.83;;
11135;SDS011;5622;50.840;4.948;2024-01-25T12:19:10;28.70;;;10.47;;
11135;SDS011;5622;50.840;4.948;2024-01-25T12:21:39;34.83;;;10.33;;
11135;SDS011;5622;50.840;4.948;2024-01-25T12:24:10;33.23;;;10.67;;
11135;SDS011;5622;50.840;4.948;2024-01-25T12:26:37;42.83;;;12.30;;
11135;SDS011;5622;50.840;4.948;2024-01-25T12:29:05;30.93;;;11.40;;
11135;SDS011;5622;50.840;4.948;2024-01-25T12:31:33;33.90;;;11.77;;
11135;SDS011;5622;50.840;4.948;2024-01-25T12:34:00;30.23;;;11.53;;
11135;SDS011;5622;50.840;4.948;2024-01-25T12:36:27;24.67;;;10.20;;
11135;SDS011;5622;50.840;4.948;2024-01-25T12:38:56;41.27;;;12.63;;
11135;SDS011;5622;50.840;4.948;2024-01-25T12:41:23;27.73;;;10.97;;
11135;SDS011;5622;50.840;4.948;2024-01-25T12:43:50;28.83;;;10.63;;
11135;SDS011;5622;50.840;4.948;2024-01-25T12:46:17;34.10;;;11.60;;
11135;SDS011;5622;50.840;4.948;2024-01-25T12:48:45;44.73;;;12.27;;
11135;SDS011;5622;50.840;4.948;2024-01-25T12:51:12;39.07;;;11.80;;
11135;SDS011;5622;50.840;4.948;2024-01-25T12:53:39;28.10;;;10.07;;
11135;SDS011;5622;50.840;4.948;2024-01-25T12:56:10;34.73;;;11.53;;
11135;SDS011;5622;50.840;4.948;2024-01-25T12:58:37;28.20;;;10.13;;
11135;SDS011;5622;50.840;4.948;2024-01-25T13:01:07;31.97;;;9.53;;
11135;SDS011;5622;50.840;4.948;2024-01-25T13:03:35;22.60;;;8.90;;
11135;SDS011;5622;50.840;4.948;2024-01-25T13:06:02;25.30;;;8.50;;
11135;SDS011;5622;50.840;4.948;2024-01-25T13:08:30;30.13;;;9.60;;
11135;SDS011;5622;50.840;4.948;2024-01-25T13:10:57;22.73;;;8.17;;
11135;SDS011;5622;50.840;4.948;2024-01-25T13:13:25;28.00;;;9.03;;
11135;SDS011;5622;50.840;4.948;2024-01-25T13:15:52;27.50;;;9.23;;
11135;SDS011;5622;50.840;4.948;2024-01-25T13:18:20;23.40;;;7.90;;
11135;SDS011;5622;50.840;4.948;2024-01-25T13:20:47;33.53;;;8.90;;
11135;SDS011;5622;50.840;4.948;2024-01-25T13:23:14;32.50;;;9.50;;
11135;SDS011;5622;50.840;4.948;2024-01-25T13:25:41;28.00;;;10.67;;
11135;SDS011;5622;50.840;4.948;2024-01-25T13:28:08;30.33;;;8.70;;
11135;SDS011;5622;50.840;4.948;2024-01-25T13:30:36;28.23;;;9.50;;
11135;SDS011;5622;50.840;4.948;2024-01-25T13:33:05;25.00;;;8.63;;
11135;SDS011;5622;50.840;4.948;2024-01-25T13:35:32;26.37;;;8.87;;
11135;SDS011;5622;50.840;4.948;2024-01-25T13:37:59;26.43;;;8.77;;
11135;SDS011;5622;50.840;4.948;2024-01-25T13:40:28;22.83;;;8.77;;
11135;SDS011;5622;50.840;4.948;2024-01-25T13:42:55;28.03;;;9.63;;
11135;SDS011;5622;50.840;4.948;2024-01-25T13:45:22;21.57;;;8.50;;
11135;SDS011;5622;50.840;4.948;2024-01-25T13:47:51;22.33;;;8.50;;
11135;SDS011;5622;50.840;4.948;2024-01-25T13:50:18;21.87;;;8.80;;
11135;SDS011;5622;50.840;4.948;2024-01-25T13:52:45;19.73;;;7.90;;
11135;SDS011;5622;50.840;4.948;2024-01-25T13:55:12;19.00;;;8.40;;
11135;SDS011;5622;50.840;4.948;2024-01-25T13:57:39;19.07;;;8.30;;
11135;SDS011;5622;50.840;4.948;2024-01-25T14:00:07;15.43;;;8.10;;
11135;SDS011;5622;50.840;4.948;2024-01-25T14:02:36;13.87;;;7.10;;
11135;SDS011;5622;50.840;4.948;2024-01-25T14:05:06;18.73;;;8.97;;
11135;SDS011;5622;50.840;4.948;2024-01-25T14:07:33;21.67;;;8.67;;
11135;SDS011;5622;50.840;4.948;2024-01-25T14:10:01;15.77;;;7.30;;
11135;SDS011;5622;50.840;4.948;2024-01-25T14:12:29;10.47;;;6.93;;
11135;SDS011;5622;50.840;4.948;2024-01-25T14:14:56;14.53;;;7.30;;
11135;SDS011;5622;50.840;4.948;2024-01-25T14:17:27;15.33;;;6.73;;
11135;SDS011;5622;50.840;4.948;2024-01-25T14:19:54;14.03;;;6.97;;
11135;SDS011;5622;50.840;4.948;2024-01-25T14:22:23;19.33;;;7.27;;
11135;SDS011;5622;50.840;4.948;2024-01-25T14:24:50;12.20;;;6.90;;
11135;SDS011;5622;50.840;4.948;2024-01-25T14:27:17;12.77;;;6.57;;
11135;SDS011;5622;50.840;4.948;2024-01-25T14:33:06;9.77;;;6.13;;
11135;SDS011;5622;50.840;4.948;2024-01-25T14:35:33;13.73;;;6.50;;
11135;SDS011;5622;50.840;4.948;2024-01-25T14:38:02;13.63;;;5.83;;
11135;SDS011;5622;50.840;4.948;2024-01-25T14:40:29;10.60;;;6.17;;
11135;SDS011;5622;50.840;4.948;2024-01-25T14:43:00;16.03;;;6.40;;
11135;SDS011;5622;50.840;4.948;2024-01-25T14:45:27;8.87;;;5.27;;
11135;SDS011;5622;50.840;4.948;2024-01-25T14:47:55;9.73;;;5.67;;
11135;SDS011;5622;50.840;4.948;2024-01-25T14:50:23;13.13;;;5.93;;
11135;SDS011;5622;50.840;4.948;2024-01-25T14:52:50;10.10;;;5.30;;